createdAt,value
2022-10-22T00:00:13.871Z,51.325760
2022-10-22T00:01:13.919Z,51.325832
2022-10-22T00:02:13.786Z,51.325699
2022-10-22T00:03:13.819Z,51.325954
2022-10-22T00:04:13.791Z,51.325909
2022-10-22T00:05:13.851Z,51.325962
2022-10-22T00:06:13.734Z,51.325745
2022-10-22T00:07:13.715Z,51.325787
2022-10-22T00:08:13.677Z,51.325722
2022-10-22T00:09:13.796Z,51.325714
2022-10-22T00:10:13.712Z,51.325764
2022-10-22T00:11:13.640Z,51.325745
2022-10-22T00:12:13.664Z,51.325722
2022-10-22T00:13:13.604Z,51.325733
2022-10-22T00:14:13.613Z,51.325775
2022-10-22T00:15:13.623Z,51.325764
2022-10-22T00:16:13.559Z,51.325737
2022-10-22T00:17:13.568Z,51.325775
2022-10-22T00:18:13.530Z,51.325764
2022-10-22T00:19:13.496Z,51.325737
2022-10-22T00:20:13.602Z,51.325695
2022-10-22T00:21:13.544Z,51.325752
2022-10-22T00:22:13.543Z,51.325771
2022-10-22T00:23:13.434Z,51.325745
2022-10-22T00:24:13.419Z,51.325756
2022-10-22T00:25:13.430Z,51.325741
2022-10-22T00:26:13.378Z,51.325741
2022-10-22T00:27:13.380Z,51.325768
2022-10-22T00:28:13.340Z,51.325710
2022-10-22T00:29:13.337Z,51.325748
2022-10-22T00:30:13.358Z,51.325752
2022-10-22T00:31:14.318Z,51.325756
2022-10-22T00:32:13.282Z,51.325729
2022-10-22T00:33:13.258Z,51.325741
2022-10-22T00:34:13.245Z,51.325771
2022-10-22T00:35:13.270Z,51.325821
2022-10-22T00:36:13.229Z,51.325790
2022-10-22T00:37:13.205Z,51.325768
2022-10-22T00:38:13.175Z,51.325798
2022-10-22T00:39:13.204Z,51.325806
2022-10-22T00:40:13.179Z,51.325741
2022-10-22T00:41:13.151Z,51.325752
2022-10-22T00:42:13.123Z,51.325748
2022-10-22T00:43:13.103Z,51.325775
2022-10-22T00:44:13.079Z,51.325741
2022-10-22T00:45:13.049Z,51.325756
2022-10-22T00:46:14.072Z,51.325764
2022-10-22T00:47:13.024Z,51.325737
2022-10-22T00:48:13.035Z,51.325783
2022-10-22T00:49:13.008Z,51.325787
2022-10-22T00:50:12.971Z,51.325764
2022-10-22T00:51:12.994Z,51.325718
2022-10-22T00:52:12.934Z,51.325699
2022-10-22T00:53:12.943Z,51.325680
2022-10-22T00:54:12.924Z,51.325722
2022-10-22T00:55:12.922Z,51.325775
2022-10-22T00:56:12.922Z,51.325771
2022-10-22T00:57:12.870Z,51.325802
2022-10-22T00:58:12.846Z,51.325760
2022-10-22T00:59:12.821Z,51.325710
2022-10-22T01:00:12.807Z,51.325714
2022-10-22T01:01:12.836Z,51.325756
2022-10-22T01:02:12.788Z,51.325748
2022-10-22T01:03:12.756Z,51.325729
2022-10-22T01:04:12.725Z,51.325714
2022-10-22T01:05:12.733Z,51.325741
2022-10-22T01:06:12.745Z,51.325726
2022-10-22T01:07:12.682Z,51.325718
2022-10-22T01:08:12.697Z,51.325760
2022-10-22T01:09:12.649Z,51.325756
2022-10-22T01:10:12.641Z,51.325748
2022-10-22T01:11:12.651Z,51.325752
2022-10-22T01:12:12.584Z,51.325813
2022-10-22T01:13:12.582Z,51.325775
2022-10-22T01:14:12.564Z,51.325760
2022-10-22T01:15:12.538Z,51.325760
2022-10-22T01:16:12.546Z,51.325756
2022-10-22T01:17:12.549Z,51.325760
2022-10-22T01:18:12.495Z,51.325771
2022-10-22T01:19:12.466Z,51.325760
2022-10-22T01:20:12.468Z,51.325748
2022-10-22T01:21:12.480Z,51.325798
2022-10-22T01:22:12.430Z,51.325783
2022-10-22T01:23:12.441Z,51.325771
2022-10-22T01:24:12.395Z,51.325775
2022-10-22T01:25:12.369Z,51.325760
2022-10-22T01:26:12.450Z,51.325722
2022-10-22T01:27:12.339Z,51.325737
2022-10-22T01:28:12.335Z,51.325737
2022-10-22T01:29:12.320Z,51.325733
2022-10-22T01:30:12.300Z,51.325726
2022-10-22T01:31:12.304Z,51.325741
2022-10-22T01:32:12.293Z,51.325748
2022-10-22T01:33:12.255Z,51.325764
2022-10-22T01:34:12.246Z,51.325760
2022-10-22T01:35:12.228Z,51.325760
2022-10-22T01:36:12.208Z,51.325737
2022-10-22T01:37:13.189Z,51.325748
2022-10-22T01:38:12.191Z,51.325756
2022-10-22T01:39:12.153Z,51.325771
2022-10-22T01:40:12.157Z,51.325787
2022-10-22T01:41:12.166Z,51.325790
2022-10-22T01:42:12.103Z,51.325764
2022-10-22T01:43:12.094Z,51.325752
2022-10-22T01:44:12.082Z,51.325787
2022-10-22T01:45:12.052Z,51.325821
2022-10-22T01:46:12.058Z,51.325802
2022-10-22T01:47:12.027Z,51.325794
2022-10-22T01:48:12.015Z,51.325726
2022-10-22T01:49:12.005Z,51.325752
2022-10-22T01:50:11.977Z,51.325733
2022-10-22T01:51:11.992Z,51.325737
2022-10-22T01:52:11.949Z,51.325733
2022-10-22T01:53:11.916Z,51.325745
2022-10-22T01:54:11.913Z,51.325733
2022-10-22T01:55:11.897Z,51.325764
2022-10-22T01:56:11.918Z,51.325741
2022-10-22T01:57:11.895Z,51.325748
2022-10-22T01:58:11.828Z,51.325756
2022-10-22T01:59:11.822Z,51.325726
2022-10-22T02:00:11.805Z,51.325706
2022-10-22T02:01:11.845Z,51.325672
2022-10-22T02:02:11.775Z,51.325665
2022-10-22T02:03:11.752Z,51.325718
2022-10-22T02:04:11.736Z,51.325703
2022-10-22T02:05:11.715Z,51.325726
2022-10-22T02:06:11.752Z,51.325741
2022-10-22T02:07:11.673Z,51.325764
2022-10-22T02:08:11.669Z,51.325745
2022-10-22T02:09:11.698Z,51.325741
2022-10-22T02:10:11.637Z,51.325733
2022-10-22T02:11:11.653Z,51.325733
2022-10-22T02:12:11.599Z,51.325748
2022-10-22T02:13:11.589Z,51.325764
2022-10-22T02:14:11.586Z,51.325737
2022-10-22T02:15:11.573Z,51.325745
2022-10-22T02:16:11.567Z,51.325745
2022-10-22T02:17:11.531Z,51.325733
2022-10-22T02:18:11.486Z,51.325729
2022-10-22T02:19:11.529Z,51.325745
2022-10-22T02:20:11.460Z,51.325714
2022-10-22T02:21:11.497Z,51.325718
2022-10-22T02:22:11.498Z,51.325737
2022-10-22T02:23:11.431Z,51.325790
2022-10-22T02:24:11.409Z,51.325768
2022-10-22T02:25:11.380Z,51.325745
2022-10-22T02:26:11.406Z,51.325756
2022-10-22T02:27:11.340Z,51.325760
2022-10-22T02:28:11.346Z,51.325752
2022-10-22T02:29:11.309Z,51.325756
2022-10-22T02:30:11.327Z,51.325775
2022-10-22T02:31:11.311Z,51.325802
2022-10-22T02:32:11.268Z,51.325748
2022-10-22T02:33:11.242Z,51.325771
2022-10-22T02:34:11.229Z,51.325722
2022-10-22T02:35:11.231Z,51.325680
2022-10-22T02:36:11.242Z,51.325748
2022-10-22T02:37:11.179Z,51.325760
2022-10-22T02:38:11.171Z,51.325783
2022-10-22T02:39:11.215Z,51.325760
2022-10-22T02:40:11.143Z,51.325779
2022-10-22T02:41:11.149Z,51.325760
2022-10-22T02:42:11.097Z,51.325775
2022-10-22T02:43:11.094Z,51.325768
2022-10-22T02:44:11.068Z,51.325760
2022-10-22T02:45:11.059Z,51.325741
2022-10-22T02:46:11.077Z,51.325768
2022-10-22T02:47:11.030Z,51.325790
2022-10-22T02:48:11.074Z,51.325829
2022-10-22T02:49:11.992Z,51.325809
2022-10-22T02:50:10.952Z,51.325829
2022-10-22T02:51:11.004Z,51.325817
2022-10-22T02:52:10.962Z,51.325794
2022-10-22T02:53:10.914Z,51.325825
2022-10-22T02:54:10.915Z,51.325790
2022-10-22T02:55:10.867Z,51.325775
2022-10-22T02:56:10.892Z,51.325760
2022-10-22T02:57:10.919Z,51.325768
2022-10-22T02:58:10.825Z,51.325775
2022-10-22T02:59:10.790Z,51.325756
2022-10-22T03:00:10.795Z,51.325760
2022-10-22T03:01:13.757Z,51.325764
2022-10-22T03:02:11.754Z,51.325760
2022-10-22T03:03:10.758Z,51.325764
2022-10-22T03:04:10.730Z,51.325794
2022-10-22T03:05:10.699Z,51.325783
2022-10-22T03:06:10.728Z,51.325790
2022-10-22T03:07:10.656Z,51.325783
2022-10-22T03:08:10.672Z,51.325771
2022-10-22T03:09:10.645Z,51.325752
2022-10-22T03:10:10.638Z,51.325771
2022-10-22T03:11:10.638Z,51.325775
2022-10-22T03:12:10.594Z,51.325790
2022-10-22T03:13:10.575Z,51.325783
2022-10-22T03:14:10.545Z,51.325798
2022-10-22T03:15:11.524Z,51.325775
2022-10-22T03:16:10.554Z,51.325775
2022-10-22T03:17:10.523Z,51.325779
2022-10-22T03:18:10.502Z,51.325783
2022-10-22T03:19:10.481Z,51.325745
2022-10-22T03:20:10.463Z,51.325703
2022-10-22T03:21:10.484Z,51.325706
2022-10-22T03:22:10.427Z,51.325726
2022-10-22T03:23:10.397Z,51.325771
2022-10-22T03:24:10.391Z,51.325790
2022-10-22T03:25:10.374Z,51.325817
2022-10-22T03:26:10.386Z,51.325851
2022-10-22T03:27:10.332Z,51.325821
2022-10-22T03:28:10.332Z,51.325775
2022-10-22T03:29:10.292Z,51.325783
2022-10-22T03:30:10.291Z,51.325821
2022-10-22T03:31:10.307Z,51.325706
2022-10-22T03:32:10.255Z,51.325798
2022-10-22T03:33:10.249Z,51.325756
2022-10-22T03:34:10.229Z,51.325760
2022-10-22T03:35:10.191Z,51.325779
2022-10-22T03:36:10.192Z,51.325825
2022-10-22T03:37:10.196Z,51.325809
2022-10-22T03:38:10.166Z,51.325768
2022-10-22T03:39:10.142Z,51.325779
2022-10-22T03:40:10.126Z,51.325733
2022-10-22T03:41:10.108Z,51.325745
2022-10-22T03:42:10.120Z,51.325794
2022-10-22T03:43:10.088Z,51.325771
2022-10-22T03:44:10.074Z,51.325760
2022-10-22T03:45:10.077Z,51.325794
2022-10-22T03:46:10.035Z,51.325821
2022-10-22T03:47:10.062Z,51.325768
2022-10-22T03:48:10.005Z,51.325794
2022-10-22T03:49:10.978Z,51.325790
2022-10-22T03:50:09.984Z,51.325783
2022-10-22T03:51:09.955Z,51.325787
2022-10-22T03:52:09.949Z,51.325726
2022-10-22T03:53:09.920Z,51.325733
2022-10-22T03:54:09.897Z,51.325809
2022-10-22T03:55:09.885Z,51.325806
2022-10-22T03:56:09.891Z,51.325867
2022-10-22T03:57:09.872Z,51.325901
2022-10-22T03:58:09.829Z,51.325855
2022-10-22T03:59:09.818Z,51.325787
2022-10-22T04:00:09.780Z,51.325809
2022-10-22T04:01:09.834Z,51.325809
2022-10-22T04:02:09.779Z,51.325821
2022-10-22T04:03:09.729Z,51.325790
2022-10-22T04:04:09.723Z,51.325756
2022-10-22T04:05:09.771Z,51.325752
2022-10-22T04:06:09.733Z,51.325790
2022-10-22T04:07:09.735Z,51.325829
2022-10-22T04:08:09.662Z,51.325794
2022-10-22T04:09:09.698Z,51.325760
2022-10-22T04:10:09.630Z,51.325687
2022-10-22T04:11:09.607Z,51.325756
2022-10-22T04:12:09.607Z,51.325787
2022-10-22T04:13:09.560Z,51.325851
2022-10-22T04:14:09.547Z,51.325840
2022-10-22T04:15:09.538Z,51.325733
2022-10-22T04:16:09.501Z,51.325741
2022-10-22T04:17:09.536Z,51.325741
2022-10-22T04:18:09.486Z,51.325768
2022-10-22T04:19:09.464Z,51.325779
2022-10-22T04:20:09.467Z,51.325741
2022-10-22T04:21:09.428Z,51.325790
2022-10-22T04:22:09.455Z,51.325790
2022-10-22T04:23:09.397Z,51.325779
2022-10-22T04:24:09.390Z,51.325798
2022-10-22T04:25:09.373Z,51.325783
2022-10-22T04:26:09.392Z,51.325775
2022-10-22T04:27:09.366Z,51.325798
2022-10-22T04:28:09.327Z,51.325829
2022-10-22T04:29:11.984Z,51.325798
2022-10-22T04:30:11.277Z,51.325771
2022-10-22T04:31:10.298Z,51.325787
2022-10-22T04:32:09.285Z,51.325771
2022-10-22T04:33:09.234Z,51.325764
2022-10-22T04:34:09.204Z,51.325787
2022-10-22T04:35:09.216Z,51.325783
2022-10-22T04:36:09.206Z,51.325760
2022-10-22T04:37:09.196Z,51.325768
2022-10-22T04:38:09.149Z,51.325783
2022-10-22T04:39:09.135Z,51.325764
2022-10-22T04:40:09.133Z,51.325771
2022-10-22T04:41:09.116Z,51.325771
2022-10-22T04:42:09.120Z,51.325775
2022-10-22T04:43:09.063Z,51.325802
2022-10-22T04:44:12.330Z,51.325752
2022-10-22T04:45:11.046Z,51.325764
2022-10-22T04:46:09.029Z,51.325756
2022-10-22T04:47:09.034Z,51.325829
2022-10-22T04:48:08.994Z,51.325771
2022-10-22T04:49:08.954Z,51.325710
2022-10-22T04:50:08.953Z,51.325748
2022-10-22T04:51:08.922Z,51.325726
2022-10-22T04:52:08.957Z,51.325684
2022-10-22T04:53:08.895Z,51.325710
2022-10-22T04:54:08.880Z,51.325691
2022-10-22T04:55:08.877Z,51.325779
2022-10-22T04:56:08.853Z,51.325760
2022-10-22T04:57:08.858Z,51.325783
2022-10-22T04:58:08.813Z,51.325680
2022-10-22T04:59:08.797Z,51.325779
2022-10-22T05:00:08.774Z,51.325790
2022-10-22T05:01:08.858Z,51.325848
2022-10-22T05:02:08.782Z,51.325851
2022-10-22T05:03:08.735Z,51.325775
2022-10-22T05:04:08.709Z,51.325790
2022-10-22T05:05:08.711Z,51.325794
2022-10-22T05:06:08.791Z,51.325764
2022-10-22T05:07:08.699Z,51.325752
2022-10-22T05:08:08.644Z,51.325718
2022-10-22T05:09:08.753Z,51.325752
2022-10-22T05:10:08.605Z,51.325771
2022-10-22T05:11:08.588Z,51.325748
2022-10-22T05:12:08.599Z,51.325722
2022-10-22T05:13:08.564Z,51.325737
2022-10-22T05:14:08.551Z,51.325748
2022-10-22T05:15:08.543Z,51.325775
2022-10-22T05:16:08.531Z,51.325798
2022-10-22T05:17:08.560Z,51.325748
2022-10-22T05:18:08.475Z,51.325779
2022-10-22T05:19:08.449Z,51.325775
2022-10-22T05:20:08.440Z,51.325771
2022-10-22T05:21:08.431Z,51.325764
2022-10-22T05:22:08.448Z,51.325752
2022-10-22T05:23:08.408Z,51.325745
2022-10-22T05:24:08.407Z,51.325775
2022-10-22T05:25:08.369Z,51.325821
2022-10-22T05:26:08.353Z,51.325802
2022-10-22T05:27:08.406Z,51.325756
2022-10-22T05:28:08.314Z,51.325733
2022-10-22T05:29:08.301Z,51.325726
2022-10-22T05:30:08.286Z,51.325733
2022-10-22T05:31:08.258Z,51.325752
2022-10-22T05:32:08.279Z,51.325760
2022-10-22T05:33:08.214Z,51.325722
2022-10-22T05:34:08.188Z,51.325768
2022-10-22T05:35:08.170Z,51.325775
2022-10-22T05:36:09.180Z,51.325748
2022-10-22T05:37:08.178Z,51.325752
2022-10-22T05:38:08.138Z,51.325741
2022-10-22T05:39:08.122Z,51.325714
2022-10-22T05:40:19.179Z,51.325714
2022-10-22T05:41:10.059Z,51.325714
2022-10-22T05:42:08.096Z,51.325745
2022-10-22T05:43:08.032Z,51.325790
2022-10-22T05:44:08.027Z,51.325726
2022-10-22T05:45:08.018Z,51.325718
2022-10-22T05:46:08.037Z,51.325768
2022-10-22T05:47:08.008Z,51.325802
2022-10-22T05:48:07.953Z,51.325813
2022-10-22T05:49:07.974Z,51.325790
2022-10-22T05:50:07.924Z,51.325775
2022-10-22T05:51:07.899Z,51.325794
2022-10-22T05:52:07.905Z,51.325748
2022-10-22T05:53:07.876Z,51.325783
2022-10-22T05:54:07.860Z,51.325775
2022-10-22T05:55:07.858Z,51.325745
2022-10-22T05:56:07.814Z,51.325768
2022-10-22T05:57:07.845Z,51.325760
2022-10-22T05:58:07.789Z,51.325745
2022-10-22T05:59:07.774Z,51.325748
2022-10-22T06:00:09.563Z,51.325768
2022-10-22T06:01:07.734Z,51.325687
2022-10-22T06:02:07.811Z,51.325748
2022-10-22T06:03:07.709Z,51.325684
2022-10-22T06:04:07.696Z,51.325680
2022-10-22T06:05:07.672Z,51.325706
2022-10-22T06:06:07.660Z,51.325691
2022-10-22T06:07:07.672Z,51.325726
2022-10-22T06:08:07.631Z,51.325771
2022-10-22T06:09:07.654Z,51.325775
2022-10-22T06:10:07.600Z,51.325790
2022-10-22T06:11:07.575Z,51.325756
2022-10-22T06:12:07.570Z,51.325714
2022-10-22T06:13:07.536Z,51.325722
2022-10-22T06:14:07.545Z,51.325768
2022-10-22T06:15:07.486Z,51.325691
2022-10-22T06:16:07.492Z,51.325726
2022-10-22T06:17:07.492Z,51.325733
2022-10-22T06:18:07.440Z,51.325722
2022-10-22T06:19:07.421Z,51.325722
2022-10-22T06:20:07.405Z,51.325733
2022-10-22T06:21:07.421Z,51.325699
2022-10-22T06:22:07.392Z,51.325672
2022-10-22T06:23:07.347Z,51.325680
2022-10-22T06:24:07.392Z,51.325726
2022-10-22T06:25:07.358Z,51.325714
2022-10-22T06:26:07.305Z,51.325726
2022-10-22T06:27:07.316Z,51.325645
2022-10-22T06:28:07.264Z,51.325672
2022-10-22T06:29:07.245Z,51.325661
2022-10-22T06:30:07.230Z,51.325684
2022-10-22T06:31:07.223Z,51.325665
2022-10-22T06:32:07.245Z,51.325714
2022-10-22T06:33:07.191Z,51.325760
2022-10-22T06:34:07.152Z,51.325748
2022-10-22T06:35:07.159Z,51.325745
2022-10-22T06:36:07.808Z,51.325733
2022-10-22T06:37:07.161Z,51.325737
2022-10-22T06:38:07.096Z,51.325695
2022-10-22T06:39:07.079Z,51.325695
2022-10-22T06:40:07.062Z,51.325691
2022-10-22T06:41:07.042Z,51.325691
2022-10-22T06:42:07.053Z,51.325703
2022-10-22T06:43:07.013Z,51.325729
2022-10-22T06:44:07.010Z,51.325733
2022-10-22T06:45:06.995Z,51.325737
2022-10-22T06:46:06.965Z,51.325745
2022-10-22T06:47:06.985Z,51.325729
2022-10-22T06:48:06.943Z,51.325718
2022-10-22T06:49:06.918Z,51.325718
2022-10-22T06:50:06.903Z,51.325726
2022-10-22T06:51:06.871Z,51.325729
2022-10-22T06:52:06.885Z,51.325722
2022-10-22T06:53:06.938Z,51.325718
2022-10-22T06:54:06.825Z,51.325733
2022-10-22T06:55:06.818Z,51.325722
2022-10-22T06:56:06.796Z,51.325752
2022-10-22T06:57:06.819Z,51.325798
2022-10-22T06:58:06.757Z,51.325764
2022-10-22T06:59:06.761Z,51.325790
2022-10-22T07:00:06.729Z,51.325775
2022-10-22T07:01:06.735Z,51.325764
2022-10-22T07:02:06.725Z,51.325775
2022-10-22T07:03:06.680Z,51.325775
2022-10-22T07:04:06.673Z,51.325794
2022-10-22T07:05:06.653Z,51.325794
2022-10-22T07:06:06.646Z,51.325787
2022-10-22T07:07:06.630Z,51.325821
2022-10-22T07:08:06.608Z,51.325798
2022-10-22T07:09:06.647Z,51.325768
2022-10-22T07:10:06.557Z,51.325787
2022-10-22T07:11:06.543Z,51.325768
2022-10-22T07:12:06.568Z,51.325771
2022-10-22T07:13:06.509Z,51.325775
2022-10-22T07:14:06.513Z,51.325764
2022-10-22T07:15:06.493Z,51.325760
2022-10-22T07:16:06.469Z,51.325748
2022-10-22T07:17:06.470Z,51.325748
2022-10-22T07:18:06.423Z,51.325764
2022-10-22T07:19:06.405Z,51.325790
2022-10-22T07:20:06.381Z,51.325787
2022-10-22T07:21:06.381Z,51.325768
2022-10-22T07:22:06.399Z,51.325760
2022-10-22T07:23:06.324Z,51.325752
2022-10-22T07:24:06.314Z,51.325760
2022-10-22T07:25:07.257Z,51.325760
2022-10-22T07:26:06.289Z,51.325741
2022-10-22T07:27:09.394Z,51.325756
2022-10-22T07:28:07.263Z,51.325745
2022-10-22T07:29:06.225Z,51.325745
2022-10-22T07:30:06.226Z,51.325703
2022-10-22T07:31:06.216Z,51.325722
2022-10-22T07:32:06.210Z,51.325722
2022-10-22T07:33:06.179Z,51.325722
2022-10-22T07:34:06.224Z,51.325752
2022-10-22T07:35:06.134Z,51.325680
2022-10-22T07:36:06.149Z,51.325691
2022-10-22T07:37:06.147Z,51.325710
2022-10-22T07:38:06.079Z,51.325714
2022-10-22T07:39:06.093Z,51.325726
2022-10-22T07:40:06.065Z,51.325737
2022-10-22T07:41:06.035Z,51.325733
2022-10-22T07:42:06.040Z,51.325676
2022-10-22T07:43:05.997Z,51.325718
2022-10-22T07:44:05.991Z,51.325687
2022-10-22T07:45:06.003Z,51.325756
2022-10-22T07:46:05.958Z,51.325714
2022-10-22T07:47:06.013Z,51.325672
2022-10-22T07:48:05.932Z,51.325672
2022-10-22T07:49:05.904Z,51.325687
2022-10-22T07:50:05.902Z,51.325649
2022-10-22T07:51:05.908Z,51.325680
2022-10-22T07:52:05.905Z,51.325665
2022-10-22T07:53:05.864Z,51.325733
2022-10-22T07:54:05.833Z,51.325748
2022-10-22T07:55:05.827Z,51.325718
2022-10-22T07:56:05.831Z,51.325699
2022-10-22T07:57:05.835Z,51.325695
2022-10-22T07:58:05.793Z,51.325676
2022-10-22T07:59:05.773Z,51.325722
2022-10-22T08:00:05.752Z,51.325703
2022-10-22T08:01:05.922Z,51.325756
2022-10-22T08:02:05.743Z,51.325722
2022-10-22T08:03:05.697Z,51.325748
2022-10-22T08:04:05.674Z,51.325752
2022-10-22T08:05:05.671Z,51.325722
2022-10-22T08:06:05.699Z,51.325718
2022-10-22T08:07:05.667Z,51.325661
2022-10-22T08:08:05.636Z,51.325687
2022-10-22T08:09:05.652Z,51.325691
2022-10-22T08:10:05.582Z,51.325680
2022-10-22T08:11:05.562Z,51.325741
2022-10-22T08:12:05.589Z,51.325703
2022-10-22T08:13:05.533Z,51.325729
2022-10-22T08:14:05.513Z,51.325726
2022-10-22T08:15:05.496Z,51.325726
2022-10-22T08:16:05.471Z,51.325726
2022-10-22T08:17:05.480Z,51.325733
2022-10-22T08:18:05.429Z,51.325737
2022-10-22T08:19:05.446Z,51.325722
2022-10-22T08:20:05.415Z,51.325768
2022-10-22T08:21:05.449Z,51.325752
2022-10-22T08:22:05.406Z,51.325722
2022-10-22T08:23:05.412Z,51.325703
2022-10-22T08:25:05.332Z,51.325726
2022-10-22T08:26:05.311Z,51.325714
2022-10-22T08:27:05.353Z,51.325733
2022-10-22T08:28:05.295Z,51.325790
2022-10-22T08:29:05.288Z,51.325768
2022-10-22T08:30:05.259Z,51.325718
2022-10-22T08:31:05.225Z,51.325703
2022-10-22T08:32:05.255Z,51.325787
2022-10-22T08:33:05.192Z,51.325684
2022-10-22T08:34:05.184Z,51.325760
2022-10-22T08:35:05.167Z,51.325775
2022-10-22T08:36:05.144Z,51.325779
2022-10-22T08:37:05.140Z,51.325768
2022-10-22T08:38:05.111Z,51.325756
2022-10-22T08:39:05.094Z,51.325714
2022-10-22T08:40:05.099Z,51.325684
2022-10-22T08:41:05.069Z,51.325718
2022-10-22T08:42:05.073Z,51.325672
2022-10-22T08:43:05.041Z,51.325771
2022-10-22T08:44:05.018Z,51.325817
2022-10-22T08:45:04.990Z,51.325745
2022-10-22T08:46:04.997Z,51.325726
2022-10-22T08:47:04.996Z,51.325806
2022-10-22T08:48:04.963Z,51.325741
2022-10-22T08:49:04.963Z,51.325718
2022-10-22T08:50:04.962Z,51.325737
2022-10-22T08:51:04.917Z,51.325779
2022-10-22T08:52:04.930Z,51.325737
2022-10-22T08:53:04.880Z,51.325745
2022-10-22T08:54:04.846Z,51.325748
2022-10-22T08:55:04.851Z,51.325768
2022-10-22T08:56:04.805Z,51.325779
2022-10-22T08:57:04.846Z,51.325764
2022-10-22T08:58:04.794Z,51.325748
2022-10-22T08:59:04.765Z,51.325733
2022-10-22T09:00:04.741Z,51.325745
2022-10-22T09:01:04.795Z,51.325741
2022-10-22T09:02:04.739Z,51.325760
2022-10-22T09:03:04.668Z,51.325745
2022-10-22T09:04:04.672Z,51.325737
2022-10-22T09:05:07.635Z,51.325756
2022-10-22T09:06:05.654Z,51.325726
2022-10-22T09:07:04.676Z,51.325726
2022-10-22T09:08:04.601Z,51.325768
2022-10-22T09:09:04.675Z,51.325756
2022-10-22T09:10:04.564Z,51.325726
2022-10-22T09:11:04.593Z,51.325771
2022-10-22T09:12:04.562Z,51.325779
2022-10-22T09:13:04.521Z,51.325794
2022-10-22T09:14:04.592Z,51.325790
2022-10-22T09:15:04.490Z,51.325787
2022-10-22T09:16:04.475Z,51.325798
2022-10-22T09:17:04.463Z,51.325748
2022-10-22T09:18:04.433Z,51.325764
2022-10-22T09:19:04.430Z,51.325745
2022-10-22T09:20:04.405Z,51.325764
2022-10-22T09:21:04.453Z,51.325737
2022-10-22T09:22:04.392Z,51.325771
2022-10-22T09:23:04.368Z,51.325745
2022-10-22T09:24:04.338Z,51.325752
2022-10-22T09:25:04.335Z,51.325752
2022-10-22T09:26:04.287Z,51.325737
2022-10-22T09:27:04.310Z,51.325741
2022-10-22T09:28:04.248Z,51.325764
2022-10-22T09:29:04.233Z,51.325729
2022-10-22T09:30:04.235Z,51.325726
2022-10-22T09:31:04.254Z,51.325756
2022-10-22T09:32:04.211Z,51.325748
2022-10-22T09:33:04.169Z,51.325764
2022-10-22T09:34:04.160Z,51.325748
2022-10-22T09:35:36.507Z,51.325798
2022-10-22T09:36:04.104Z,51.325787
2022-10-22T09:37:04.127Z,51.325851
2022-10-22T09:38:04.073Z,51.325962
2022-10-22T09:39:04.100Z,51.325878
2022-10-22T09:40:04.075Z,51.325874
2022-10-22T09:41:04.240Z,51.325798
2022-10-22T09:42:04.041Z,51.325771
2022-10-22T09:43:04.018Z,51.325699
2022-10-22T09:44:04.013Z,51.325802
2022-10-22T09:45:03.954Z,51.325905
2022-10-22T09:46:03.967Z,51.325668
2022-10-22T09:47:03.969Z,51.325706
2022-10-22T09:48:03.918Z,51.325726
2022-10-22T09:49:03.895Z,51.325748
2022-10-22T09:50:03.885Z,51.325779
2022-10-22T09:51:03.916Z,51.325687
2022-10-22T09:52:03.896Z,51.325714
2022-10-22T09:53:03.833Z,51.325687
2022-10-22T09:54:03.826Z,51.325665
2022-10-22T09:55:03.809Z,51.325726
2022-10-22T09:56:03.784Z,51.325741
2022-10-22T09:57:03.801Z,51.325794
2022-10-22T09:58:03.749Z,51.325764
2022-10-22T09:59:03.742Z,51.325726
2022-10-22T10:00:03.740Z,51.325764
2022-10-22T10:01:03.714Z,51.325729
2022-10-22T10:02:13.721Z,51.325718
2022-10-22T10:03:05.726Z,51.325741
2022-10-22T10:04:08.403Z,51.325729
2022-10-22T10:05:05.650Z,51.325729
2022-10-22T10:06:06.138Z,51.325661
2022-10-22T10:07:04.643Z,51.325691
2022-10-22T10:08:03.603Z,51.325779
2022-10-22T10:09:03.638Z,51.325863
2022-10-22T10:10:03.562Z,51.325756
2022-10-22T10:11:03.549Z,51.325741
2022-10-22T10:12:03.565Z,51.325729
2022-10-22T10:13:03.530Z,51.325672
2022-10-22T10:14:03.504Z,51.325661
2022-10-22T10:15:03.501Z,51.325661
2022-10-22T10:16:03.469Z,51.325638
2022-10-22T10:17:03.504Z,51.325695
2022-10-22T10:18:03.427Z,51.325676
2022-10-22T10:19:03.423Z,51.325706
2022-10-22T10:20:04.296Z,51.325706
2022-10-22T10:21:03.505Z,51.325718
2022-10-22T10:22:03.399Z,51.325726
2022-10-22T10:23:03.347Z,51.325684
2022-10-22T10:24:03.342Z,51.325714
2022-10-22T10:25:03.312Z,51.325790
2022-10-22T10:26:03.304Z,51.325726
2022-10-22T10:27:03.331Z,51.325691
2022-10-22T10:28:03.278Z,51.325699
2022-10-22T10:29:03.254Z,51.325703
2022-10-22T10:30:03.236Z,51.325726
2022-10-22T10:31:03.222Z,51.325714
2022-10-22T10:32:03.242Z,51.325699
2022-10-22T10:33:03.189Z,51.325733
2022-10-22T10:34:03.166Z,51.325710
2022-10-22T10:35:03.159Z,51.325661
2022-10-22T10:36:03.148Z,51.325642
2022-10-22T10:37:03.154Z,51.325741
2022-10-22T10:38:03.106Z,51.325768
2022-10-22T10:39:03.109Z,51.325737
2022-10-22T10:40:03.078Z,51.325760
2022-10-22T10:41:03.093Z,51.325783
2022-10-22T10:42:03.068Z,51.325760
2022-10-22T10:43:03.019Z,51.325741
2022-10-22T10:44:03.006Z,51.325722
2022-10-22T10:45:03.001Z,51.325699
2022-10-22T10:46:02.979Z,51.325729
2022-10-22T10:47:02.997Z,51.325741
2022-10-22T10:48:02.956Z,51.325737
2022-10-22T10:49:02.927Z,51.325706
2022-10-22T10:50:02.917Z,51.325706
2022-10-22T10:51:02.896Z,51.325722
2022-10-22T10:52:02.907Z,51.325794
2022-10-22T10:53:02.867Z,51.325756
2022-10-22T10:54:02.847Z,51.325729
2022-10-22T10:55:02.828Z,51.325733
2022-10-22T10:56:02.864Z,51.325661
2022-10-22T10:57:02.809Z,51.325695
2022-10-22T10:58:02.786Z,51.325733
2022-10-22T10:59:02.770Z,51.325733
2022-10-22T11:00:02.762Z,51.325695
2022-10-22T11:01:02.738Z,51.325737
2022-10-22T11:02:02.751Z,51.325760
2022-10-22T11:03:02.696Z,51.325703
2022-10-22T11:04:02.677Z,51.325756
2022-10-22T11:05:02.673Z,51.325741
2022-10-22T11:06:02.675Z,51.325733
2022-10-22T11:07:11.505Z,51.325726
2022-10-22T11:08:04.628Z,51.325695
2022-10-22T11:09:02.702Z,51.325733
2022-10-22T11:10:02.592Z,51.325756
2022-10-22T11:11:02.603Z,51.325745
2022-10-22T11:12:02.557Z,51.325764
2022-10-22T11:13:02.540Z,51.325783
2022-10-22T11:14:02.523Z,51.325726
2022-10-22T11:15:02.522Z,51.325737
2022-10-22T11:16:02.532Z,51.325760
2022-10-22T11:17:02.484Z,51.325832
2022-10-22T11:18:02.466Z,51.325775
2022-10-22T11:19:02.452Z,51.325760
2022-10-22T11:20:02.425Z,51.325760
2022-10-22T11:21:02.436Z,51.325722
2022-10-22T11:22:02.393Z,51.325710
2022-10-22T11:23:18.730Z,51.325733
2022-10-22T11:24:04.373Z,51.325768
2022-10-22T11:25:02.350Z,51.325779